sensor_id;sensor_type;location;lat;lon;timestamp;temperature;humidity
3051;DHT22;1535;51.098;6.414;2023-02-15T00:01:32;2.70;99.90
3051;DHT22;1535;51.098;6.414;2023-02-15T00:04:00;2.70;99.90
3051;DHT22;1535;51.098;6.414;2023-02-15T00:06:28;2.60;99.90
3051;DHT22;1535;51.098;6.414;2023-02-15T00:08:55;2.60;99.90
3051;DHT22;1535;51.098;6.414;2023-02-15T00:11:23;2.50;99.90
3051;DHT22;1535;51.098;6.414;2023-02-15T00:14:04;2.50;99.90
3051;DHT22;1535;51.098;6.414;2023-02-15T00:16:31;2.50;99.90
3051;DHT22;1535;51.098;6.414;2023-02-15T00:18:57;2.40;99.90
3051;DHT22;1535;51.098;6.414;2023-02-15T00:21:29;2.40;99.90
3051;DHT22;1535;51.098;6.414;2023-02-15T00:23:57;2.40;99.90
3051;DHT22;1535;51.098;6.414;2023-02-15T00:26:24;2.40;99.90
3051;DHT22;1535;51.098;6.414;2023-02-15T00:28:51;2.40;99.90
3051;DHT22;1535;51.098;6.414;2023-02-15T00:31:19;2.30;99.90
3051;DHT22;1535;51.098;6.414;2023-02-15T00:33:47;2.30;99.90
3051;DHT22;1535;51.098;6.414;2023-02-15T00:36:13;2.30;99.90
3051;DHT22;1535;51.098;6.414;2023-02-15T00:38:41;2.40;99.90
3051;DHT22;1535;51.098;6.414;2023-02-15T00:41:09;2.40;99.90
3051;DHT22;1535;51.098;6.414;2023-02-15T00:43:36;2.30;99.90
3051;DHT22;1535;51.098;6.414;2023-02-15T00:46:04;2.30;99.90
3051;DHT22;1535;51.098;6.414;2023-02-15T00:48:31;2.20;99.90
3051;DHT22;1535;51.098;6.414;2023-02-15T00:50:59;2.20;99.90
3051;DHT22;1535;51.098;6.414;2023-02-15T00:53:28;2.20;99.90
3051;DHT22;1535;51.098;6.414;2023-02-15T00:55:57;2.20;99.90
3051;DHT22;1535;51.098;6.414;2023-02-15T00:58:24;2.10;99.90
3051;DHT22;1535;51.098;6.414;2023-02-15T01:00:51;2.20;99.90
3051;DHT22;1535;51.098;6.414;2023-02-15T01:03:19;2.20;99.90
3051;DHT22;1535;51.098;6.414;2023-02-15T01:05:48;2.20;99.90
3051;DHT22;1535;51.098;6.414;2023-02-15T01:08:16;2.10;99.90
3051;DHT22;1535;51.098;6.414;2023-02-15T01:10:43;2.10;99.90
3051;DHT22;1535;51.098;6.414;2023-02-15T01:13:14;2.10;99.90
3051;DHT22;1535;51.098;6.414;2023-02-15T01:15:42;2.10;99.90
3051;DHT22;1535;51.098;6.414;2023-02-15T01:18:10;2.20;99.90
3051;DHT22;1535;51.098;6.414;2023-02-15T01:20:38;2.10;99.90
3051;DHT22;1535;51.098;6.414;2023-02-15T01:23:07;2.00;99.90
3051;DHT22;1535;51.098;6.414;2023-02-15T01:25:35;2.00;99.90
3051;DHT22;1535;51.098;6.414;2023-02-15T01:28:03;1.90;99.90
3051;DHT22;1535;51.098;6.414;2023-02-15T01:30:32;1.90;99.90
3051;DHT22;1535;51.098;6.414;2023-02-15T01:32:59;1.90;99.90
3051;DHT22;1535;51.098;6.414;2023-02-15T01:35:26;1.90;99.90
3051;DHT22;1535;51.098;6.414;2023-02-15T01:37:53;1.80;99.90
3051;DHT22;1535;51.098;6.414;2023-02-15T01:40:21;1.80;99.90
3051;DHT22;1535;51.098;6.414;2023-02-15T01:42:50;1.80;99.90
3051;DHT22;1535;51.098;6.414;2023-02-15T01:45:21;1.70;99.90
3051;DHT22;1535;51.098;6.414;2023-02-15T01:47:54;1.70;99.90
3051;DHT22;1535;51.098;6.414;2023-02-15T01:50:27;1.70;99.90
3051;DHT22;1535;51.098;6.414;2023-02-15T01:52:57;1.70;99.90
3051;DHT22;1535;51.098;6.414;2023-02-15T01:55:28;1.70;99.90
3051;DHT22;1535;51.098;6.414;2023-02-15T01:57:56;1.70;99.90
3051;DHT22;1535;51.098;6.414;2023-02-15T02:00:23;1.70;99.90
3051;DHT22;1535;51.098;6.414;2023-02-15T02:02:54;1.60;99.90
3051;DHT22;1535;51.098;6.414;2023-02-15T02:05:22;1.60;99.90
3051;DHT22;1535;51.098;6.414;2023-02-15T02:07:52;1.70;99.90
3051;DHT22;1535;51.098;6.414;2023-02-15T02:10:23;1.60;99.90
3051;DHT22;1535;51.098;6.414;2023-02-15T02:12:52;1.60;99.90
3051;DHT22;1535;51.098;6.414;2023-02-15T02:15:23;1.60;99.90
3051;DHT22;1535;51.098;6.414;2023-02-15T02:18:04;1.70;99.90
3051;DHT22;1535;51.098;6.414;2023-02-15T02:23:51;1.60;99.90
3051;DHT22;1535;51.098;6.414;2023-02-15T02:26:56;1.50;99.90
3051;DHT22;1535;51.098;6.414;2023-02-15T02:33:02;1.70;99.90
3051;DHT22;1535;51.098;6.414;2023-02-15T02:35:40;1.60;99.90
3051;DHT22;1535;51.098;6.414;2023-02-15T02:38:15;1.60;99.90
3051;DHT22;1535;51.098;6.414;2023-02-15T02:40:51;1.50;99.90
3051;DHT22;1535;51.098;6.414;2023-02-15T02:43:22;1.50;99.90
3051;DHT22;1535;51.098;6.414;2023-02-15T02:45:57;1.40;99.90
3051;DHT22;1535;51.098;6.414;2023-02-15T02:48:29;1.40;99.90
3051;DHT22;1535;51.098;6.414;2023-02-15T02:50:57;1.40;99.90
3051;DHT22;1535;51.098;6.414;2023-02-15T02:53:24;1.40;99.90
3051;DHT22;1535;51.098;6.414;2023-02-15T02:55:53;1.30;99.90
3051;DHT22;1535;51.098;6.414;2023-02-15T02:58:24;1.20;99.90
3051;DHT22;1535;51.098;6.414;2023-02-15T03:00:54;1.30;99.90
3051;DHT22;1535;51.098;6.414;2023-02-15T03:03:27;1.20;99.90
3051;DHT22;1535;51.098;6.414;2023-02-15T03:05:59;1.20;99.90
3051;DHT22;1535;51.098;6.414;2023-02-15T03:08:32;1.30;99.90
3051;DHT22;1535;51.098;6.414;2023-02-15T03:11:03;1.30;99.90
3051;DHT22;1535;51.098;6.414;2023-02-15T03:13:31;1.30;99.90
3051;DHT22;1535;51.098;6.414;2023-02-15T03:16:00;1.30;99.90
3051;DHT22;1535;51.098;6.414;2023-02-15T03:18:48;1.30;99.90
3051;DHT22;1535;51.098;6.414;2023-02-15T03:21:19;1.20;99.90
3051;DHT22;1535;51.098;6.414;2023-02-15T03:23:51;1.20;99.90
3051;DHT22;1535;51.098;6.414;2023-02-15T03:26:20;1.20;99.90
3051;DHT22;1535;51.098;6.414;2023-02-15T03:28:50;1.20;99.90
3051;DHT22;1535;51.098;6.414;2023-02-15T03:31:22;1.10;99.90
3051;DHT22;1535;51.098;6.414;2023-02-15T03:33:53;1.10;99.90
3051;DHT22;1535;51.098;6.414;2023-02-15T03:36:24;1.10;99.90
3051;DHT22;1535;51.098;6.414;2023-02-15T03:38:59;1.10;99.90
3051;DHT22;1535;51.098;6.414;2023-02-15T03:41:32;1.20;99.90
3051;DHT22;1535;51.098;6.414;2023-02-15T03:44:04;1.20;99.90
3051;DHT22;1535;51.098;6.414;2023-02-15T03:46:34;1.20;99.90
3051;DHT22;1535;51.098;6.414;2023-02-15T03:49:06;1.10;99.90
3051;DHT22;1535;51.098;6.414;2023-02-15T03:51:37;1.10;99.90
3051;DHT22;1535;51.098;6.414;2023-02-15T03:54:08;1.00;99.90
3051;DHT22;1535;51.098;6.414;2023-02-15T03:56:37;1.00;99.90
3051;DHT22;1535;51.098;6.414;2023-02-15T03:59:05;1.00;99.90
3051;DHT22;1535;51.098;6.414;2023-02-15T04:02:01;0.90;99.90
3051;DHT22;1535;51.098;6.414;2023-02-15T04:04:36;1.00;99.90
3051;DHT22;1535;51.098;6.414;2023-02-15T04:07:05;0.90;99.90
3051;DHT22;1535;51.098;6.414;2023-02-15T04:09:32;0.90;99.90
3051;DHT22;1535;51.098;6.414;2023-02-15T04:12:17;0.90;99.90
3051;DHT22;1535;51.098;6.414;2023-02-15T04:14:43;0.90;99.90
3051;DHT22;1535;51.098;6.414;2023-02-15T04:17:28;0.90;99.90
3051;DHT22;1535;51.098;6.414;2023-02-15T04:19:57;0.90;99.90
3051;DHT22;1535;51.098;6.414;2023-02-15T04:22:41;0.90;99.90
3051;DHT22;1535;51.098;6.414;2023-02-15T04:25:25;0.90;99.90
3051;DHT22;1535;51.098;6.414;2023-02-15T04:27:54;0.90;99.90
3051;DHT22;1535;51.098;6.414;2023-02-15T04:30:22;0.90;99.90
3051;DHT22;1535;51.098;6.414;2023-02-15T04:32:49;0.90;99.90
3051;DHT22;1535;51.098;6.414;2023-02-15T04:35:18;0.90;99.90
3051;DHT22;1535;51.098;6.414;2023-02-15T04:37:45;0.90;99.90
3051;DHT22;1535;51.098;6.414;2023-02-15T04:40:13;0.90;99.90
3051;DHT22;1535;51.098;6.414;2023-02-15T04:42:40;0.90;99.90
3051;DHT22;1535;51.098;6.414;2023-02-15T04:45:08;0.90;99.90
3051;DHT22;1535;51.098;6.414;2023-02-15T04:47:35;0.90;99.90
3051;DHT22;1535;51.098;6.414;2023-02-15T04:50:02;0.90;99.90
3051;DHT22;1535;51.098;6.414;2023-02-15T04:52:30;0.90;99.90
3051;DHT22;1535;51.098;6.414;2023-02-15T04:54:57;0.90;99.90
3051;DHT22;1535;51.098;6.414;2023-02-15T04:57:24;0.90;99.90
3051;DHT22;1535;51.098;6.414;2023-02-15T04:59:51;0.80;99.90
3051;DHT22;1535;51.098;6.414;2023-02-15T05:02:17;0.90;99.90
3051;DHT22;1535;51.098;6.414;2023-02-15T05:04:44;1.00;99.90
3051;DHT22;1535;51.098;6.414;2023-02-15T05:07:11;0.90;99.90
3051;DHT22;1535;51.098;6.414;2023-02-15T05:09:39;0.90;99.90
3051;DHT22;1535;51.098;6.414;2023-02-15T05:12:06;0.80;99.90
3051;DHT22;1535;51.098;6.414;2023-02-15T05:14:33;0.90;99.90
3051;DHT22;1535;51.098;6.414;2023-02-15T05:17:00;0.90;99.90
3051;DHT22;1535;51.098;6.414;2023-02-15T05:19:29;0.80;99.90
3051;DHT22;1535;51.098;6.414;2023-02-15T05:21:56;0.70;99.90
3051;DHT22;1535;51.098;6.414;2023-02-15T05:24:23;0.70;99.90
3051;DHT22;1535;51.098;6.414;2023-02-15T05:27:10;0.70;99.90
3051;DHT22;1535;51.098;6.414;2023-02-15T05:29:55;0.80;99.90
3051;DHT22;1535;51.098;6.414;2023-02-15T05:32:22;0.80;99.90
3051;DHT22;1535;51.098;6.414;2023-02-15T05:34:49;0.80;99.90
3051;DHT22;1535;51.098;6.414;2023-02-15T05:37:16;0.80;99.90
3051;DHT22;1535;51.098;6.414;2023-02-15T05:39:43;0.80;99.90
3051;DHT22;1535;51.098;6.414;2023-02-15T05:42:11;0.70;99.90
3051;DHT22;1535;51.098;6.414;2023-02-15T05:44:38;0.70;99.90
3051;DHT22;1535;51.098;6.414;2023-02-15T05:47:06;0.80;99.90
3051;DHT22;1535;51.098;6.414;2023-02-15T05:49:33;0.70;99.90
3051;DHT22;1535;51.098;6.414;2023-02-15T05:52:01;0.70;99.90
3051;DHT22;1535;51.098;6.414;2023-02-15T05:54:29;0.80;99.90
3051;DHT22;1535;51.098;6.414;2023-02-15T05:56:56;0.80;99.90
3051;DHT22;1535;51.098;6.414;2023-02-15T05:59:24;0.70;99.90
3051;DHT22;1535;51.098;6.414;2023-02-15T06:01:51;0.70;99.90
3051;DHT22;1535;51.098;6.414;2023-02-15T06:04:18;0.70;99.90
3051;DHT22;1535;51.098;6.414;2023-02-15T06:06:45;0.70;99.90
3051;DHT22;1535;51.098;6.414;2023-02-15T06:09:12;0.70;99.90
3051;DHT22;1535;51.098;6.414;2023-02-15T06:11:39;0.70;99.90
3051;DHT22;1535;51.098;6.414;2023-02-15T06:14:06;0.70;99.90
3051;DHT22;1535;51.098;6.414;2023-02-15T06:16:35;0.70;99.90
3051;DHT22;1535;51.098;6.414;2023-02-15T06:19:02;0.60;99.90
3051;DHT22;1535;51.098;6.414;2023-02-15T06:21:29;0.60;99.90
3051;DHT22;1535;51.098;6.414;2023-02-15T06:23:56;0.60;99.90
3051;DHT22;1535;51.098;6.414;2023-02-15T06:26:23;0.60;99.90
3051;DHT22;1535;51.098;6.414;2023-02-15T06:28:49;0.60;99.90
3051;DHT22;1535;51.098;6.414;2023-02-15T06:31:16;0.50;99.90
3051;DHT22;1535;51.098;6.414;2023-02-15T06:33:44;0.60;99.90
3051;DHT22;1535;51.098;6.414;2023-02-15T06:36:12;0.60;99.90
3051;DHT22;1535;51.098;6.414;2023-02-15T06:38:38;0.60;99.90
3051;DHT22;1535;51.098;6.414;2023-02-15T06:41:05;0.60;99.90
3051;DHT22;1535;51.098;6.414;2023-02-15T06:43:32;0.60;99.90
3051;DHT22;1535;51.098;6.414;2023-02-15T06:46:00;0.60;99.90
3051;DHT22;1535;51.098;6.414;2023-02-15T06:48:26;0.60;99.90
3051;DHT22;1535;51.098;6.414;2023-02-15T06:50:55;0.70;99.90
3051;DHT22;1535;51.098;6.414;2023-02-15T06:53:21;0.80;99.90
3051;DHT22;1535;51.098;6.414;2023-02-15T06:55:48;0.70;99.90
3051;DHT22;1535;51.098;6.414;2023-02-15T06:58:15;0.70;99.90
3051;DHT22;1535;51.098;6.414;2023-02-15T07:00:42;0.70;99.90
3051;DHT22;1535;51.098;6.414;2023-02-15T07:03:09;0.60;99.90
3051;DHT22;1535;51.098;6.414;2023-02-15T07:05:35;0.60;99.90
3051;DHT22;1535;51.098;6.414;2023-02-15T07:08:04;0.60;99.90
3051;DHT22;1535;51.098;6.414;2023-02-15T07:10:31;0.60;99.90
3051;DHT22;1535;51.098;6.414;2023-02-15T07:12:58;0.70;99.90
3051;DHT22;1535;51.098;6.414;2023-02-15T07:15:24;0.70;99.90
3051;DHT22;1535;51.098;6.414;2023-02-15T07:17:52;0.70;99.90
3051;DHT22;1535;51.098;6.414;2023-02-15T07:20:20;0.80;99.90
3051;DHT22;1535;51.098;6.414;2023-02-15T07:22:48;0.80;99.90
3051;DHT22;1535;51.098;6.414;2023-02-15T07:25:16;0.90;99.90
3051;DHT22;1535;51.098;6.414;2023-02-15T07:27:44;0.90;99.90
3051;DHT22;1535;51.098;6.414;2023-02-15T07:30:13;1.00;99.90
3051;DHT22;1535;51.098;6.414;2023-02-15T07:32:40;1.00;99.90
3051;DHT22;1535;51.098;6.414;2023-02-15T07:35:21;1.10;99.90
3051;DHT22;1535;51.098;6.414;2023-02-15T07:37:48;1.20;99.90
3051;DHT22;1535;51.098;6.414;2023-02-15T07:40:16;1.20;99.90
3051;DHT22;1535;51.098;6.414;2023-02-15T07:42:44;1.30;99.90
3051;DHT22;1535;51.098;6.414;2023-02-15T07:45:11;1.30;99.90
3051;DHT22;1535;51.098;6.414;2023-02-15T07:47:38;1.30;99.90
3051;DHT22;1535;51.098;6.414;2023-02-15T07:50:05;1.30;99.90
3051;DHT22;1535;51.098;6.414;2023-02-15T07:52:33;1.40;99.90
3051;DHT22;1535;51.098;6.414;2023-02-15T07:55:00;1.50;99.90
3051;DHT22;1535;51.098;6.414;2023-02-15T07:57:28;1.50;99.90
3051;DHT22;1535;51.098;6.414;2023-02-15T07:59:55;1.50;99.90
3051;DHT22;1535;51.098;6.414;2023-02-15T08:02:22;1.50;99.90
3051;DHT22;1535;51.098;6.414;2023-02-15T08:04:49;1.60;99.90
3051;DHT22;1535;51.098;6.414;2023-02-15T08:07:16;1.70;99.90
3051;DHT22;1535;51.098;6.414;2023-02-15T08:09:43;1.70;99.90
3051;DHT22;1535;51.098;6.414;2023-02-15T08:12:10;1.80;99.90
3051;DHT22;1535;51.098;6.414;2023-02-15T08:14:38;1.90;99.90
3051;DHT22;1535;51.098;6.414;2023-02-15T08:17:04;1.90;99.90
3051;DHT22;1535;51.098;6.414;2023-02-15T08:19:32;2.00;99.90
3051;DHT22;1535;51.098;6.414;2023-02-15T08:22:01;2.10;99.90
3051;DHT22;1535;51.098;6.414;2023-02-15T08:24:31;2.20;99.90
3051;DHT22;1535;51.098;6.414;2023-02-15T08:26:58;2.30;99.90
3051;DHT22;1535;51.098;6.414;2023-02-15T08:29:29;2.30;99.90
3051;DHT22;1535;51.098;6.414;2023-02-15T08:32:00;2.40;99.90
3051;DHT22;1535;51.098;6.414;2023-02-15T08:34:28;2.50;99.90
3051;DHT22;1535;51.098;6.414;2023-02-15T08:36:55;2.60;99.90
3051;DHT22;1535;51.098;6.414;2023-02-15T08:39:22;2.70;99.90
3051;DHT22;1535;51.098;6.414;2023-02-15T08:41:49;2.80;99.90
3051;DHT22;1535;51.098;6.414;2023-02-15T08:44:18;2.90;99.90
3051;DHT22;1535;51.098;6.414;2023-02-15T08:46:47;3.10;99.90
3051;DHT22;1535;51.098;6.414;2023-02-15T08:49:17;3.20;99.90
3051;DHT22;1535;51.098;6.414;2023-02-15T08:51:45;3.20;99.90
3051;DHT22;1535;51.098;6.414;2023-02-15T08:54:15;3.30;99.90
3051;DHT22;1535;51.098;6.414;2023-02-15T08:56:43;3.30;99.90
3051;DHT22;1535;51.098;6.414;2023-02-15T08:59:13;3.40;99.90
3051;DHT22;1535;51.098;6.414;2023-02-15T09:01:40;3.40;99.90
3051;DHT22;1535;51.098;6.414;2023-02-15T09:04:07;3.50;99.90
3051;DHT22;1535;51.098;6.414;2023-02-15T09:06:37;3.60;99.90
3051;DHT22;1535;51.098;6.414;2023-02-15T09:09:05;3.60;99.90
3051;DHT22;1535;51.098;6.414;2023-02-15T09:11:34;3.70;99.90
3051;DHT22;1535;51.098;6.414;2023-02-15T09:14:03;3.80;99.90
3051;DHT22;1535;51.098;6.414;2023-02-15T09:16:32;3.90;99.90
3051;DHT22;1535;51.098;6.414;2023-02-15T09:18:59;3.90;99.90
3051;DHT22;1535;51.098;6.414;2023-02-15T09:21:28;4.00;99.90
3051;DHT22;1535;51.098;6.414;2023-02-15T09:23:58;4.00;99.90
3051;DHT22;1535;51.098;6.414;2023-02-15T09:26:26;4.20;99.90
3051;DHT22;1535;51.098;6.414;2023-02-15T09:28:55;4.30;99.90
3051;DHT22;1535;51.098;6.414;2023-02-15T09:31:25;4.40;99.90
3051;DHT22;1535;51.098;6.414;2023-02-15T09:33:54;4.50;99.90
3051;DHT22;1535;51.098;6.414;2023-02-15T09:36:22;4.40;99.90
3051;DHT22;1535;51.098;6.414;2023-02-15T09:38:54;4.50;99.90
3051;DHT22;1535;51.098;6.414;2023-02-15T09:41:59;4.70;99.90
3051;DHT22;1535;51.098;6.414;2023-02-15T09:44:39;4.80;99.90
3051;DHT22;1535;51.098;6.414;2023-02-15T09:50:09;5.10;99.90
3051;DHT22;1535;51.098;6.414;2023-02-15T09:52:53;5.30;99.90
3051;DHT22;1535;51.098;6.414;2023-02-15T09:58:22;5.40;99.90
3051;DHT22;1535;51.098;6.414;2023-02-15T10:00:54;5.40;99.90
3051;DHT22;1535;51.098;6.414;2023-02-15T10:03:38;5.60;99.90
3051;DHT22;1535;51.098;6.414;2023-02-15T10:06:20;5.70;99.90
3051;DHT22;1535;51.098;6.414;2023-02-15T10:09:10;5.60;99.90
3051;DHT22;1535;51.098;6.414;2023-02-15T10:11:53;5.90;99.90
3051;DHT22;1535;51.098;6.414;2023-02-15T10:17:40;6.20;99.90
3051;DHT22;1535;51.098;6.414;2023-02-15T10:20:17;6.40;99.90
3051;DHT22;1535;51.098;6.414;2023-02-15T10:22:57;6.50;99.90
3051;DHT22;1535;51.098;6.414;2023-02-15T10:25:31;6.60;99.90
3051;DHT22;1535;51.098;6.414;2023-02-15T10:28:06;6.70;99.90
3051;DHT22;1535;51.098;6.414;2023-02-15T10:30:42;7.00;99.90
3051;DHT22;1535;51.098;6.414;2023-02-15T10:33:18;7.10;99.90
3051;DHT22;1535;51.098;6.414;2023-02-15T10:36:07;7.20;99.90
3051;DHT22;1535;51.098;6.414;2023-02-15T10:38:41;7.30;99.90
3051;DHT22;1535;51.098;6.414;2023-02-15T10:41:22;7.50;99.90
3051;DHT22;1535;51.098;6.414;2023-02-15T10:44:09;8.10;99.90
3051;DHT22;1535;51.098;6.414;2023-02-15T10:46:53;8.60;99.90
3051;DHT22;1535;51.098;6.414;2023-02-15T10:49:37;9.30;99.90
3051;DHT22;1535;51.098;6.414;2023-02-15T10:52:14;9.80;99.90
3051;DHT22;1535;51.098;6.414;2023-02-15T10:54:49;10.40;99.90
3051;DHT22;1535;51.098;6.414;2023-02-15T10:57:24;10.60;99.90
3051;DHT22;1535;51.098;6.414;2023-02-15T11:00:09;10.80;99.90
3051;DHT22;1535;51.098;6.414;2023-02-15T11:02:51;11.50;99.90
3051;DHT22;1535;51.098;6.414;2023-02-15T11:05:34;12.00;99.90
3051;DHT22;1535;51.098;6.414;2023-02-15T11:08:05;12.40;99.90
3051;DHT22;1535;51.098;6.414;2023-02-15T11:10:35;12.70;99.90
3051;DHT22;1535;51.098;6.414;2023-02-15T11:13:09;12.90;99.90
3051;DHT22;1535;51.098;6.414;2023-02-15T11:15:39;13.20;99.90
3051;DHT22;1535;51.098;6.414;2023-02-15T11:18:13;13.60;99.90
3051;DHT22;1535;51.098;6.414;2023-02-15T11:20:45;13.60;99.90
3051;DHT22;1535;51.098;6.414;2023-02-15T11:23:16;13.80;99.90
3051;DHT22;1535;51.098;6.414;2023-02-15T11:25:46;14.30;99.90
3051;DHT22;1535;51.098;6.414;2023-02-15T11:28:19;14.10;99.90
3051;DHT22;1535;51.098;6.414;2023-02-15T11:30:49;14.50;99.90
3051;DHT22;1535;51.098;6.414;2023-02-15T11:33:22;14.30;99.90
3051;DHT22;1535;51.098;6.414;2023-02-15T11:35:52;15.00;99.90
3051;DHT22;1535;51.098;6.414;2023-02-15T11:38:23;15.40;99.90
3051;DHT22;1535;51.098;6.414;2023-02-15T11:40:54;16.00;99.90
3051;DHT22;1535;51.098;6.414;2023-02-15T11:43:28;15.80;99.90
3051;DHT22;1535;51.098;6.414;2023-02-15T11:45:56;15.80;99.90
3051;DHT22;1535;51.098;6.414;2023-02-15T11:48:25;15.60;99.90
3051;DHT22;1535;51.098;6.414;2023-02-15T11:50:52;15.90;99.90
3051;DHT22;1535;51.098;6.414;2023-02-15T11:53:20;16.10;99.90
3051;DHT22;1535;51.098;6.414;2023-02-15T11:55:50;16.10;99.90
3051;DHT22;1535;51.098;6.414;2023-02-15T11:58:26;16.20;99.90
3051;DHT22;1535;51.098;6.414;2023-02-15T12:00:57;16.10;99.90
3051;DHT22;1535;51.098;6.414;2023-02-15T12:03:37;16.30;99.90
3051;DHT22;1535;51.098;6.414;2023-02-15T12:06:14;16.80;99.90
3051;DHT22;1535;51.098;6.414;2023-02-15T12:08:46;17.10;99.90
3051;DHT22;1535;51.098;6.414;2023-02-15T12:11:18;17.60;99.90
3051;DHT22;1535;51.098;6.414;2023-02-15T12:13:57;17.70;99.90
3051;DHT22;1535;51.098;6.414;2023-02-15T12:16:25;18.40;98.90
3051;DHT22;1535;51.098;6.414;2023-02-15T12:18:55;18.20;98.30
3051;DHT22;1535;51.098;6.414;2023-02-15T12:21:28;18.50;96.80
3051;DHT22;1535;51.098;6.414;2023-02-15T12:23:58;18.70;97.90
3051;DHT22;1535;51.098;6.414;2023-02-15T12:26:28;18.80;96.70
3051;DHT22;1535;51.098;6.414;2023-02-15T12:28:58;19.50;95.40
3051;DHT22;1535;51.098;6.414;2023-02-15T12:31:30;19.40;93.70
3051;DHT22;1535;51.098;6.414;2023-02-15T12:34:01;19.50;94.40
3051;DHT22;1535;51.098;6.414;2023-02-15T12:36:31;19.40;93.00
3051;DHT22;1535;51.098;6.414;2023-02-15T12:39:04;19.40;93.40
3051;DHT22;1535;51.098;6.414;2023-02-15T12:41:31;19.30;93.70
3051;DHT22;1535;51.098;6.414;2023-02-15T12:44:06;19.90;91.60
3051;DHT22;1535;51.098;6.414;2023-02-15T12:46:34;20.40;91.70
3051;DHT22;1535;51.098;6.414;2023-02-15T12:49:10;20.70;91.10
3051;DHT22;1535;51.098;6.414;2023-02-15T12:51:46;20.30;89.70
3051;DHT22;1535;51.098;6.414;2023-02-15T12:54:28;20.90;90.00
3051;DHT22;1535;51.098;6.414;2023-02-15T12:56:55;20.50;89.20
3051;DHT22;1535;51.098;6.414;2023-02-15T12:59:23;20.40;87.40
3051;DHT22;1535;51.098;6.414;2023-02-15T13:01:51;20.20;87.20
3051;DHT22;1535;51.098;6.414;2023-02-15T13:04:23;20.30;88.20
3051;DHT22;1535;51.098;6.414;2023-02-15T13:06:52;20.20;86.80
3051;DHT22;1535;51.098;6.414;2023-02-15T13:09:26;20.30;87.40
3051;DHT22;1535;51.098;6.414;2023-02-15T13:12:10;20.20;87.20
3051;DHT22;1535;51.098;6.414;2023-02-15T13:14:43;20.30;87.70
3051;DHT22;1535;51.098;6.414;2023-02-15T13:17:12;21.00;88.20
3051;DHT22;1535;51.098;6.414;2023-02-15T13:19:44;21.20;85.90
3051;DHT22;1535;51.098;6.414;2023-02-15T13:22:14;21.00;83.40
3051;DHT22;1535;51.098;6.414;2023-02-15T13:24:45;21.50;82.90
3051;DHT22;1535;51.098;6.414;2023-02-15T13:27:15;21.70;80.90
3051;DHT22;1535;51.098;6.414;2023-02-15T13:29:43;22.00;82.10
3051;DHT22;1535;51.098;6.414;2023-02-15T13:32:20;21.40;80.10
3051;DHT22;1535;51.098;6.414;2023-02-15T13:34:52;21.00;80.00
3051;DHT22;1535;51.098;6.414;2023-02-15T13:37:25;20.60;82.60
3051;DHT22;1535;51.098;6.414;2023-02-15T13:40:02;20.90;80.50
3051;DHT22;1535;51.098;6.414;2023-02-15T13:42:32;20.80;81.00
3051;DHT22;1535;51.098;6.414;2023-02-15T13:45:13;20.60;81.90
3051;DHT22;1535;51.098;6.414;2023-02-15T13:47:45;19.90;82.70
3051;DHT22;1535;51.098;6.414;2023-02-15T13:50:35;20.10;83.60
3051;DHT22;1535;51.098;6.414;2023-02-15T13:53:18;20.80;81.40
3051;DHT22;1535;51.098;6.414;2023-02-15T13:55:52;20.40;80.60
3051;DHT22;1535;51.098;6.414;2023-02-15T14:01:41;20.80;77.50
3051;DHT22;1535;51.098;6.414;2023-02-15T14:10:10;20.40;81.70
3051;DHT22;1535;51.098;6.414;2023-02-15T14:12:50;20.30;81.50
3051;DHT22;1535;51.098;6.414;2023-02-15T14:15:28;20.30;81.00
3051;DHT22;1535;51.098;6.414;2023-02-15T14:18:07;20.20;82.40
3051;DHT22;1535;51.098;6.414;2023-02-15T14:20:51;20.10;79.20
3051;DHT22;1535;51.098;6.414;2023-02-15T14:23:33;20.00;80.60
3051;DHT22;1535;51.098;6.414;2023-02-15T14:26:09;19.90;79.30
3051;DHT22;1535;51.098;6.414;2023-02-15T14:28:42;19.80;80.70
3051;DHT22;1535;51.098;6.414;2023-02-15T14:31:12;19.40;80.10
3051;DHT22;1535;51.098;6.414;2023-02-15T14:33:41;19.20;82.30
3051;DHT22;1535;51.098;6.414;2023-02-15T14:36:15;19.30;82.80
3051;DHT22;1535;51.098;6.414;2023-02-15T14:39:06;19.30;81.80
3051;DHT22;1535;51.098;6.414;2023-02-15T14:42:01;18.80;83.70
3051;DHT22;1535;51.098;6.414;2023-02-15T14:44:35;18.90;84.50
3051;DHT22;1535;51.098;6.414;2023-02-15T14:47:08;18.80;85.00
3051;DHT22;1535;51.098;6.414;2023-02-15T14:49:38;18.20;85.90
3051;DHT22;1535;51.098;6.414;2023-02-15T14:52:06;17.90;87.00
3051;DHT22;1535;51.098;6.414;2023-02-15T14:54:54;17.60;88.70
3051;DHT22;1535;51.098;6.414;2023-02-15T14:57:32;17.50;89.50
3051;DHT22;1535;51.098;6.414;2023-02-15T15:00:00;17.00;90.60
3051;DHT22;1535;51.098;6.414;2023-02-15T15:02:43;17.00;90.70
3051;DHT22;1535;51.098;6.414;2023-02-15T15:05:17;16.50;92.10
3051;DHT22;1535;51.098;6.414;2023-02-15T15:07:46;16.30;92.40
3051;DHT22;1535;51.098;6.414;2023-02-15T15:10:37;16.30;92.90
3051;DHT22;1535;51.098;6.414;2023-02-15T15:16:23;15.90;94.00
3051;DHT22;1535;51.098;6.414;2023-02-15T15:18:51;15.80;94.70
3051;DHT22;1535;51.098;6.414;2023-02-15T15:21:53;15.60;95.10
3051;DHT22;1535;51.098;6.414;2023-02-15T15:24:48;15.60;95.50
3051;DHT22;1535;51.098;6.414;2023-02-15T15:27:49;15.40;95.60
3051;DHT22;1535;51.098;6.414;2023-02-15T15:30:49;15.20;95.90
3051;DHT22;1535;51.098;6.414;2023-02-15T15:42:50;14.40;98.70
3051;DHT22;1535;51.098;6.414;2023-02-15T15:45:44;14.20;99.20
3051;DHT22;1535;51.098;6.414;2023-02-15T15:48:30;14.20;99.30
3051;DHT22;1535;51.098;6.414;2023-02-15T15:51:00;14.10;99.60
3051;DHT22;1535;51.098;6.414;2023-02-15T15:53:32;13.90;99.90
3051;DHT22;1535;51.098;6.414;2023-02-15T15:56:03;13.80;99.90
3051;DHT22;1535;51.098;6.414;2023-02-15T15:58:33;13.70;99.90
3051;DHT22;1535;51.098;6.414;2023-02-15T16:01:04;13.50;99.90
3051;DHT22;1535;51.098;6.414;2023-02-15T16:03:32;13.40;99.90
3051;DHT22;1535;51.098;6.414;2023-02-15T16:05:59;13.40;99.90
3051;DHT22;1535;51.098;6.414;2023-02-15T16:08:29;13.20;99.90
3051;DHT22;1535;51.098;6.414;2023-02-15T16:10:58;13.10;99.90
3051;DHT22;1535;51.098;6.414;2023-02-15T16:13:26;12.90;99.90
3051;DHT22;1535;51.098;6.414;2023-02-15T16:15:55;12.70;99.90
3051;DHT22;1535;51.098;6.414;2023-02-15T16:18:24;12.60;99.90
3051;DHT22;1535;51.098;6.414;2023-02-15T16:20:54;12.50;99.90
3051;DHT22;1535;51.098;6.414;2023-02-15T16:23:45;12.30;99.90
3051;DHT22;1535;51.098;6.414;2023-02-15T16:26:20;12.10;99.90
3051;DHT22;1535;51.098;6.414;2023-02-15T16:28:53;11.90;99.90
3051;DHT22;1535;51.098;6.414;2023-02-15T16:31:22;11.80;99.90
3051;DHT22;1535;51.098;6.414;2023-02-15T16:33:52;11.70;99.90
3051;DHT22;1535;51.098;6.414;2023-02-15T16:36:21;11.60;99.90
3051;DHT22;1535;51.098;6.414;2023-02-15T16:39:09;11.50;99.90
3051;DHT22;1535;51.098;6.414;2023-02-15T16:41:36;11.40;99.90
3051;DHT22;1535;51.098;6.414;2023-02-15T16:44:07;11.30;99.90
3051;DHT22;1535;51.098;6.414;2023-02-15T16:46:40;11.20;99.90
3051;DHT22;1535;51.098;6.414;2023-02-15T16:49:15;11.00;99.90
3051;DHT22;1535;51.098;6.414;2023-02-15T16:51:43;11.00;99.90
3051;DHT22;1535;51.098;6.414;2023-02-15T16:54:18;10.90;99.90
3051;DHT22;1535;51.098;6.414;2023-02-15T16:56:45;10.80;99.90
3051;DHT22;1535;51.098;6.414;2023-02-15T16:59:21;10.70;99.90
3051;DHT22;1535;51.098;6.414;2023-02-15T17:01:53;10.60;99.90
3051;DHT22;1535;51.098;6.414;2023-02-15T17:04:27;10.50;99.90
3051;DHT22;1535;51.098;6.414;2023-02-15T17:07:00;10.50;99.90
3051;DHT22;1535;51.098;6.414;2023-02-15T17:09:29;10.40;99.90
3051;DHT22;1535;51.098;6.414;2023-02-15T17:11:56;10.30;99.90
3051;DHT22;1535;51.098;6.414;2023-02-15T17:14:28;10.30;99.90
3051;DHT22;1535;51.098;6.414;2023-02-15T17:17:01;10.20;99.90
3051;DHT22;1535;51.098;6.414;2023-02-15T17:19:31;10.20;99.90